createdAt,value
2019-02-26T00:02:42.095Z,0.20
2019-02-26T00:06:47.188Z,0.20
2019-02-26T00:10:47.599Z,0.20
2019-02-26T00:14:50.177Z,0.10
2019-02-26T00:18:53.110Z,0.10
2019-02-26T00:22:55.863Z,0.00
2019-02-26T00:27:01.456Z,0.00
2019-02-26T00:31:03.868Z,-0.10
2019-02-26T00:35:07.112Z,-0.10
2019-02-26T00:39:09.316Z,-0.20
2019-02-26T00:43:11.220Z,-0.20
2019-02-26T00:47:13.142Z,-0.20
2019-02-26T00:51:16.061Z,-0.20
2019-02-26T00:55:18.662Z,-0.20
2019-02-26T00:59:20.585Z,-0.30
2019-02-26T01:03:22.529Z,-0.30
2019-02-26T01:07:28.269Z,-0.30
2019-02-26T01:11:31.330Z,-0.30
2019-02-26T01:15:33.257Z,-0.40
2019-02-26T01:19:36.935Z,-0.30
2019-02-26T01:23:38.768Z,-0.40
2019-02-26T01:27:43.203Z,-0.40
2019-02-26T01:31:44.296Z,-0.40
2019-02-26T01:35:46.295Z,-0.50
2019-02-26T01:39:50.054Z,-0.50
2019-02-26T01:43:51.836Z,-0.50
2019-02-26T01:47:53.756Z,-0.50
2019-02-26T01:51:55.665Z,-0.50
2019-02-26T01:55:57.922Z,-0.50
2019-02-26T01:59:59.862Z,-0.60
2019-02-26T02:04:02.193Z,-0.60
2019-02-26T02:08:04.599Z,-0.60
2019-02-26T02:12:08.371Z,-0.70
2019-02-26T02:16:10.150Z,-0.70
2019-02-26T02:20:21.318Z,-0.80
2019-02-26T02:24:22.285Z,-0.80
2019-02-26T02:28:26.197Z,-0.80
2019-02-26T02:32:29.653Z,-0.90
2019-02-26T02:36:31.176Z,-0.90
2019-02-26T02:40:33.087Z,-1.00
2019-02-26T02:44:35.009Z,-0.90
2019-02-26T02:48:36.909Z,-0.90
2019-02-26T02:52:38.832Z,-1.00
2019-02-26T02:56:42.438Z,-1.00
2019-02-26T03:00:46.185Z,-1.00
2019-02-26T03:04:48.074Z,-1.00
2019-02-26T03:08:51.059Z,-1.00
2019-02-26T03:12:55.255Z,-1.00
2019-02-26T03:16:57.220Z,-1.00
2019-02-26T03:21:01.753Z,-1.10
2019-02-26T03:25:02.753Z,-1.10
2019-02-26T03:29:04.722Z,-1.10
2019-02-26T03:33:07.616Z,-1.10
2019-02-26T03:37:11.003Z,-1.10
2019-02-26T03:41:13.049Z,-1.10
2019-02-26T03:45:23.853Z,-1.20
2019-02-26T03:49:20.914Z,-1.20
2019-02-26T03:53:25.546Z,-1.20
2019-02-26T03:57:26.448Z,-1.30
2019-02-26T04:01:28.461Z,-1.30
2019-02-26T04:05:30.366Z,-1.30
2019-02-26T04:09:32.325Z,-1.40
2019-02-26T04:13:34.316Z,-1.40
2019-02-26T04:17:36.817Z,-1.40
2019-02-26T04:22:26.828Z,-1.40
2019-02-26T04:26:47.887Z,-1.50
2019-02-26T04:31:43.585Z,-1.50
2019-02-26T04:35:50.015Z,-1.50
2019-02-26T04:40:13.980Z,-1.50
2019-02-26T04:44:29.226Z,-1.50
2019-02-26T04:48:38.718Z,-1.50
2019-02-26T04:52:43.452Z,-1.50
2019-02-26T04:56:45.208Z,-1.50
2019-02-26T05:00:48.060Z,-1.50
2019-02-26T05:04:50.012Z,-1.50
2019-02-26T05:08:51.991Z,-1.50
2019-02-26T05:12:57.139Z,-1.50
2019-02-26T05:16:57.703Z,-1.50
2019-02-26T05:21:01.919Z,-1.40
2019-02-26T05:25:04.752Z,-1.50
2019-02-26T05:29:12.587Z,-1.50
2019-02-26T05:33:14.504Z,-1.50
2019-02-26T05:37:17.177Z,-1.50
2019-02-26T05:41:19.079Z,-1.50
2019-02-26T05:45:22.004Z,-1.50
2019-02-26T05:49:24.625Z,-1.50
2019-02-26T05:53:26.516Z,-1.60
2019-02-26T05:57:32.563Z,-1.50
2019-02-26T06:01:39.557Z,-1.60
2019-02-26T06:05:45.761Z,-1.60
2019-02-26T06:09:46.003Z,-1.70
2019-02-26T06:13:48.842Z,-1.70
2019-02-26T06:17:51.528Z,-1.70
2019-02-26T06:21:56.558Z,-1.70
2019-02-26T06:26:01.454Z,-1.70
2019-02-26T06:30:05.957Z,-1.80
2019-02-26T06:34:08.790Z,-1.70
2019-02-26T06:38:11.675Z,-1.60
2019-02-26T06:42:14.487Z,-1.60
2019-02-26T06:46:17.259Z,-1.60
2019-02-26T06:50:19.165Z,-1.60
2019-02-26T06:54:22.688Z,-1.50
2019-02-26T06:58:27.381Z,-1.40
2019-02-26T07:02:29.297Z,-1.40
2019-02-26T07:06:33.125Z,-1.20
2019-02-26T07:10:34.825Z,-1.10
2019-02-26T07:14:36.811Z,-1.10
2019-02-26T07:18:38.893Z,-1.00
2019-02-26T07:22:41.570Z,-0.90
2019-02-26T07:26:46.358Z,-1.20
2019-02-26T07:30:49.016Z,-0.70
2019-02-26T07:34:52.116Z,-0.50
2019-02-26T07:38:56.463Z,-0.40
2019-02-26T07:42:57.916Z,-0.20
2019-02-26T07:47:00.971Z,-0.10
2019-02-26T07:51:03.436Z,0.10
2019-02-26T07:55:09.146Z,0.30
2019-02-26T07:59:12.601Z,0.50
2019-02-26T08:03:14.818Z,0.70
2019-02-26T08:07:19.020Z,0.90
2019-02-26T08:11:20.918Z,1.10
2019-02-26T08:15:22.826Z,1.30
2019-02-26T08:19:29.511Z,1.50
2019-02-26T08:23:28.344Z,1.70
2019-02-26T08:27:30.956Z,1.90
2019-02-26T08:31:33.848Z,2.10
2019-02-26T08:35:37.354Z,2.40
2019-02-26T08:39:39.259Z,2.60
2019-02-26T08:43:44.143Z,2.90
2019-02-26T08:47:44.775Z,3.10
2019-02-26T08:51:46.675Z,3.30
2019-02-26T08:55:48.588Z,3.60
2019-02-26T08:59:52.239Z,3.80
2019-02-26T09:03:55.848Z,4.10
2019-02-26T09:07:57.711Z,4.40
2019-02-26T09:12:01.219Z,4.70
2019-02-26T09:16:05.548Z,5.10
2019-02-26T09:20:12.318Z,5.30
2019-02-26T09:24:14.967Z,5.70
2019-02-26T09:28:17.364Z,6.20
2019-02-26T09:32:19.268Z,6.70
2019-02-26T09:36:23.720Z,7.10
2019-02-26T09:40:26.626Z,7.70
2019-02-26T09:44:29.299Z,8.30
2019-02-26T09:48:33.623Z,9.10
2019-02-26T09:52:35.637Z,10.00
2019-02-26T09:56:37.713Z,10.70
2019-02-26T10:00:40.483Z,11.40
2019-02-26T10:04:45.074Z,11.90
2019-02-26T10:08:48.982Z,12.30
2019-02-26T10:12:53.240Z,12.70
2019-02-26T10:16:55.195Z,13.00
2019-02-26T10:20:57.811Z,13.20
2019-02-26T10:24:59.728Z,13.50
2019-02-26T10:29:04.531Z,13.80
2019-02-26T10:33:07.956Z,14.10
2019-02-26T10:37:09.865Z,14.50
2019-02-26T10:41:11.806Z,14.90
2019-02-26T10:45:23.536Z,15.30
2019-02-26T10:49:25.464Z,15.60
2019-02-26T10:53:27.624Z,15.90
2019-02-26T10:57:31.079Z,16.20
2019-02-26T11:01:33.826Z,16.30
2019-02-26T11:05:37.759Z,16.30
2019-02-26T11:09:39.448Z,16.40
2019-02-26T11:13:43.504Z,16.10
2019-02-26T11:17:45.752Z,16.30
2019-02-26T11:21:50.788Z,16.60
2019-02-26T11:26:13.114Z,16.70
2019-02-26T11:30:25.866Z,16.90
2019-02-26T11:34:28.553Z,16.80
2019-02-26T11:38:30.709Z,16.60
2019-02-26T11:42:32.667Z,16.70
2019-02-26T11:46:34.587Z,16.50
2019-02-26T11:50:36.822Z,16.80
2019-02-26T11:54:40.247Z,16.90
2019-02-26T11:58:42.451Z,17.10
2019-02-26T12:02:44.396Z,17.10
2019-02-26T12:06:46.351Z,17.10
2019-02-26T12:10:48.416Z,17.20
2019-02-26T12:26:04.914Z,17.70
2019-02-26T12:30:18.101Z,17.80
2019-02-26T12:34:21.434Z,17.90
2019-02-26T12:38:24.087Z,18.10
2019-02-26T12:42:26.041Z,18.40
2019-02-26T12:46:30.904Z,18.60
2019-02-26T12:50:36.021Z,18.90
2019-02-26T12:54:37.813Z,18.90
2019-02-26T12:58:40.887Z,19.00
2019-02-26T13:02:43.326Z,18.70
2019-02-26T13:06:48.434Z,18.60
2019-02-26T13:10:55.282Z,18.60
2019-02-26T13:14:54.466Z,18.60
2019-02-26T13:19:00.759Z,18.50
2019-02-26T13:23:16.401Z,18.80
2019-02-26T13:27:04.443Z,19.00
2019-02-26T13:31:08.652Z,19.40
2019-02-26T13:35:12.306Z,19.60
2019-02-26T13:39:21.928Z,19.90
2019-02-26T13:43:17.963Z,20.10
2019-02-26T13:47:19.962Z,19.90
2019-02-26T13:51:21.964Z,20.00
2019-02-26T13:55:23.947Z,20.00
2019-02-26T13:59:25.860Z,20.00
2019-02-26T14:03:27.806Z,20.20
2019-02-26T14:07:29.724Z,20.00
2019-02-26T14:11:32.787Z,19.40
2019-02-26T14:15:34.701Z,19.30
2019-02-26T14:19:36.600Z,19.00
2019-02-26T14:23:38.524Z,18.80
2019-02-26T14:27:40.428Z,18.90
2019-02-26T14:31:42.352Z,19.00
2019-02-26T14:35:44.543Z,19.40
2019-02-26T14:39:46.445Z,19.40
2019-02-26T14:43:48.363Z,19.10
2019-02-26T14:47:50.448Z,18.90
2019-02-26T14:51:52.353Z,18.70
2019-02-26T14:55:54.264Z,18.60
2019-02-26T14:59:57.146Z,18.50
2019-02-26T15:03:59.052Z,18.60
2019-02-26T15:08:01.754Z,18.70
2019-02-26T15:12:03.677Z,18.60
2019-02-26T15:16:05.663Z,18.60
2019-02-26T15:20:14.626Z,18.50
2019-02-26T15:24:17.513Z,18.00
2019-02-26T15:28:19.411Z,17.80
2019-02-26T15:32:21.390Z,17.60
2019-02-26T15:36:23.312Z,17.30
2019-02-26T15:40:25.216Z,17.00
2019-02-26T15:44:28.782Z,16.70
2019-02-26T15:48:30.803Z,16.40
2019-02-26T15:52:32.825Z,16.00
2019-02-26T15:56:34.744Z,15.70
2019-02-26T16:00:37.983Z,15.40
2019-02-26T16:04:40.319Z,15.20
2019-02-26T16:08:43.386Z,14.80
2019-02-26T16:12:45.902Z,14.60
2019-02-26T16:16:47.840Z,14.20
2019-02-26T16:20:49.755Z,13.80
2019-02-26T16:24:51.742Z,13.30
2019-02-26T16:28:53.647Z,13.00
2019-02-26T16:32:55.567Z,12.60
2019-02-26T16:36:57.483Z,12.30
2019-02-26T16:41:02.848Z,12.00
2019-02-26T16:45:06.221Z,11.60
2019-02-26T16:49:08.444Z,11.30
2019-02-26T16:53:13.199Z,11.00
2019-02-26T16:57:15.105Z,10.60
2019-02-26T17:01:19.727Z,10.30
2019-02-26T17:05:21.455Z,10.00
2019-02-26T17:09:23.393Z,9.70
2019-02-26T17:13:25.460Z,9.50
2019-02-26T17:17:27.536Z,9.20
2019-02-26T17:21:30.696Z,8.90
2019-02-26T17:25:33.223Z,8.70
2019-02-26T17:29:35.300Z,8.50
2019-02-26T17:33:37.284Z,8.30
2019-02-26T17:37:41.453Z,8.10
2019-02-26T17:41:44.797Z,7.80
2019-02-26T17:45:46.405Z,7.70
2019-02-26T17:49:48.407Z,7.50
2019-02-26T17:53:50.289Z,7.30
2019-02-26T17:57:52.192Z,7.20
2019-02-26T18:01:54.111Z,7.10
2019-02-26T18:05:56.019Z,6.90
2019-02-26T18:09:57.917Z,6.70
2019-02-26T18:14:00.159Z,6.60
2019-02-26T18:18:03.590Z,6.60
2019-02-26T18:22:05.973Z,6.40
2019-02-26T18:26:07.868Z,6.20
2019-02-26T18:30:15.141Z,6.10
2019-02-26T18:34:17.568Z,6.00
2019-02-26T18:38:19.493Z,5.80
2019-02-26T18:42:21.376Z,5.70
2019-02-26T18:46:23.562Z,5.70
2019-02-26T18:50:25.827Z,5.60
2019-02-26T18:54:29.210Z,5.60
2019-02-26T18:58:31.549Z,5.70
2019-02-26T19:02:35.876Z,5.70
2019-02-26T19:06:37.111Z,5.80
2019-02-26T19:10:39.009Z,5.80
2019-02-26T19:14:42.334Z,5.80
2019-02-26T19:18:44.888Z,5.80
2019-02-26T19:22:46.803Z,5.70
2019-02-26T19:26:48.714Z,5.80
2019-02-26T19:30:51.679Z,5.80
2019-02-26T19:34:54.567Z,5.70
2019-02-26T19:39:00.468Z,5.70
2019-02-26T19:43:00.095Z,5.70
2019-02-26T19:47:02.152Z,5.70
2019-02-26T19:51:04.056Z,5.70
2019-02-26T19:55:15.745Z,5.70
2019-02-26T19:59:19.162Z,5.80
2019-02-26T20:03:21.083Z,5.80
2019-02-26T20:07:22.994Z,5.80
2019-02-26T20:11:24.887Z,5.80
2019-02-26T20:15:26.806Z,5.90
2019-02-26T20:19:31.715Z,5.90
2019-02-26T20:23:32.294Z,5.90
2019-02-26T20:27:35.852Z,5.90
2019-02-26T20:31:37.793Z,5.90
2019-02-26T20:35:39.693Z,5.90
2019-02-26T20:39:44.005Z,5.90
2019-02-26T20:43:45.248Z,5.90
2019-02-26T20:47:47.601Z,5.90
2019-02-26T20:51:49.497Z,5.90
2019-02-26T20:55:52.721Z,5.90
2019-02-26T20:59:55.992Z,5.90
2019-02-26T21:03:57.882Z,5.90
2019-02-26T21:07:59.785Z,5.90
2019-02-26T21:12:01.676Z,5.90
2019-02-26T21:16:03.651Z,5.80
2019-02-26T21:20:09.382Z,5.80
2019-02-26T21:24:11.330Z,5.70
2019-02-26T21:28:13.212Z,5.60
2019-02-26T21:32:15.134Z,5.50
2019-02-26T21:36:17.767Z,5.50
2019-02-26T21:40:19.738Z,5.30
2019-02-26T21:44:22.624Z,5.30
2019-02-26T21:48:37.457Z,5.20
2019-02-26T21:52:42.127Z,5.20
2019-02-26T21:56:43.977Z,5.20
2019-02-26T22:00:45.913Z,5.20
2019-02-26T22:04:47.888Z,5.20
2019-02-26T22:08:49.784Z,5.10
2019-02-26T22:12:51.717Z,5.10
2019-02-26T22:16:53.900Z,5.10
2019-02-26T22:20:55.800Z,5.10
2019-02-26T22:24:57.944Z,5.10
2019-02-26T22:29:00.726Z,5.10
2019-02-26T22:33:02.621Z,5.10
2019-02-26T22:37:06.995Z,5.00
2019-02-26T22:41:08.130Z,5.00
2019-02-26T22:45:13.747Z,5.00
2019-02-26T22:49:17.853Z,5.00
2019-02-26T22:53:19.236Z,4.90
2019-02-26T22:57:40.239Z,4.90
2019-02-26T23:01:42.737Z,4.80
2019-02-26T23:05:46.261Z,4.80
2019-02-26T23:09:52.174Z,4.70
2019-02-26T23:13:54.433Z,4.60
2019-02-26T23:17:58.437Z,4.60
2019-02-26T23:22:01.604Z,4.40
2019-02-26T23:26:08.672Z,4.40
2019-02-26T23:30:14.410Z,4.30
2019-02-26T23:34:21.679Z,4.10
2019-02-26T23:38:21.272Z,4.00
2019-02-26T23:42:23.238Z,3.90
2019-02-26T23:46:25.145Z,3.80
2019-02-26T23:50:27.976Z,3.60
2019-02-26T23:54:29.859Z,3.50
2019-02-26T23:58:31.767Z,3.40
